Accueil
METAR-TAF:

METAR-TAF

Aéroports :

Aéroport international des Seychelles

Victoria, Mahé, Seychelles

latitude: 04-40S, longitude: 055-31E, altitude: 3 m

Observation

Le bulletin a été fait il y a 42 minutes, à 18:00 UTC
Vent 5 kt de direction variable
Température 27°C
Humidité 79%
Pression 1012 hPa
Visibilité 10 km ou plus
Nuages épars à une hauteur de 2200 ft

METAR: FSIA 241800Z VRB05KT 9999 SCT022 27/23 Q1012 NOSIG

Heure: 22:42 (18:42 UTC)

Prévision

Le bulletin a été fait il y a 19 heures et 42 minutes, à 23:00 UTC
Prévision valable du 24 à 00 UTC au 24 à 24 UTC
Vent 12 kt de sud-est
Visibilité 10 km ou plus
Nuages épars à une hauteur de 2200 ft

TAF: FSIA 232300Z 2400/2424 13012KT 9999 SCT022

Observations et prévisions météorologiques de plus de 4000 aéroports (messages METAR et TAF).

Les stations disponibles sont représentées par des disques jaunes et rouges sur la carte.

Passer la souris dessus pour voir le nom de la station.

Cliquer dessus pour voir les observations et prévisions météorologiques.

Pour changer de carte: cliquez sur les boutons verts avec une croix noire pour zoomer, sur le bouton vert avec un tiret pour effectuer un zoom arrière, ou sur les flèches vertes pour les cartes adjacentes.


METAR-TAF: